sensor_id;sensor_type;location;lat;lon;timestamp;pressure;altitude;pressure_sealevel;temperature;humidity
34185;BME280;20454;48.100;11.776;2022-12-29T00:02:07;95284.00;;;3.35;80.57
34185;BME280;20454;48.100;11.776;2022-12-29T00:04:33;95272.75;;;3.36;80.52
34185;BME280;20454;48.100;11.776;2022-12-29T00:06:59;95266.94;;;3.38;80.52
34185;BME280;20454;48.100;11.776;2022-12-29T00:09:25;95271.63;;;3.37;80.95
34185;BME280;20454;48.100;11.776;2022-12-29T00:11:50;95268.56;;;3.44;79.32
34185;BME280;20454;48.100;11.776;2022-12-29T00:14:16;95259.50;;;3.43;79.90
34185;BME280;20454;48.100;11.776;2022-12-29T00:17:00;95263.63;;;3.46;79.60
34185;BME280;20454;48.100;11.776;2022-12-29T00:19:26;95259.19;;;3.45;79.74
34185;BME280;20454;48.100;11.776;2022-12-29T00:22:12;95261.41;;;3.48;78.92
34185;BME280;20454;48.100;11.776;2022-12-29T00:24:56;95245.16;;;3.51;77.86
34185;BME280;20454;48.100;11.776;2022-12-29T00:27:31;95259.41;;;3.58;77.44
34185;BME280;20454;48.100;11.776;2022-12-29T00:30:20;95253.03;;;3.63;76.98
34185;BME280;20454;48.100;11.776;2022-12-29T00:33:28;95248.63;;;3.67;77.19
34185;BME280;20454;48.100;11.776;2022-12-29T00:36:23;95248.88;;;3.70;77.38
34185;BME280;20454;48.100;11.776;2022-12-29T00:38:59;95231.56;;;3.65;77.36
34185;BME280;20454;48.100;11.776;2022-12-29T00:41:44;95241.78;;;3.64;77.18
34185;BME280;20454;48.100;11.776;2022-12-29T00:44:28;95233.81;;;3.58;77.50
34185;BME280;20454;48.100;11.776;2022-12-29T00:46:54;95245.38;;;3.60;78.10
34185;BME280;20454;48.100;11.776;2022-12-29T00:49:20;95234.66;;;3.58;77.33
34185;BME280;20454;48.100;11.776;2022-12-29T00:54:23;95237.38;;;3.63;76.87
34185;BME280;20454;48.100;11.776;2022-12-29T00:56:50;95231.63;;;3.60;77.53
34185;BME280;20454;48.100;11.776;2022-12-29T00:59:17;95231.38;;;3.56;77.24
34185;BME280;20454;48.100;11.776;2022-12-29T01:01:43;95248.41;;;3.58;77.93
34185;BME280;20454;48.100;11.776;2022-12-29T01:04:09;95250.31;;;3.58;77.12
34185;BME280;20454;48.100;11.776;2022-12-29T01:06:36;95242.13;;;3.53;77.39
34185;BME280;20454;48.100;11.776;2022-12-29T01:09:03;95245.94;;;3.57;76.68
34185;BME280;20454;48.100;11.776;2022-12-29T01:11:48;95245.38;;;3.60;76.22
34185;BME280;20454;48.100;11.776;2022-12-29T01:14:13;95244.81;;;3.58;76.51
34185;BME280;20454;48.100;11.776;2022-12-29T01:16:39;95261.38;;;3.53;76.73
34185;BME280;20454;48.100;11.776;2022-12-29T01:19:05;95250.66;;;3.46;77.48
34185;BME280;20454;48.100;11.776;2022-12-29T01:21:31;95251.50;;;3.47;77.17
34185;BME280;20454;48.100;11.776;2022-12-29T01:23:57;95252.06;;;3.44;77.01
34185;BME280;20454;48.100;11.776;2022-12-29T01:26:23;95251.81;;;3.40;77.08
34185;BME280;20454;48.100;11.776;2022-12-29T01:28:48;95247.91;;;3.46;76.22
34185;BME280;20454;48.100;11.776;2022-12-29T01:31:15;95250.69;;;3.41;77.23
34185;BME280;20454;48.100;11.776;2022-12-29T01:33:41;95257.56;;;3.39;77.70
34185;BME280;20454;48.100;11.776;2022-12-29T01:36:10;95258.94;;;3.41;77.03
34185;BME280;20454;48.100;11.776;2022-12-29T01:38:36;95255.63;;;3.49;75.73
34185;BME280;20454;48.100;11.776;2022-12-29T01:41:03;95254.16;;;3.62;74.81
34185;BME280;20454;48.100;11.776;2022-12-29T01:48:59;95255.91;;;3.48;75.90
34185;BME280;20454;48.100;11.776;2022-12-29T01:51:26;95260.31;;;3.44;76.56
34185;BME280;20454;48.100;11.776;2022-12-29T01:53:53;95258.69;;;3.38;76.87
34185;BME280;20454;48.100;11.776;2022-12-29T01:56:21;95252.63;;;3.41;76.13
34185;BME280;20454;48.100;11.776;2022-12-29T01:58:48;95251.03;;;3.35;76.91
34185;BME280;20454;48.100;11.776;2022-12-29T02:01:15;95252.13;;;3.34;77.65
34185;BME280;20454;48.100;11.776;2022-12-29T02:03:43;95249.06;;;3.35;76.63
34185;BME280;20454;48.100;11.776;2022-12-29T02:06:22;95232.06;;;3.28;77.11
34185;BME280;20454;48.100;11.776;2022-12-29T02:08:50;95239.50;;;3.28;76.84
34185;BME280;20454;48.100;11.776;2022-12-29T02:11:17;95239.78;;;3.26;77.22
34185;BME280;20454;48.100;11.776;2022-12-29T02:13:43;95238.72;;;3.22;77.35
34185;BME280;20454;48.100;11.776;2022-12-29T02:40:51;95242.88;;;3.15;77.01
34185;BME280;20454;48.100;11.776;2022-12-29T02:43:24;95245.34;;;3.16;77.20
34185;BME280;20454;48.100;11.776;2022-12-29T02:45:58;95238.75;;;3.12;77.27
34185;BME280;20454;48.100;11.776;2022-12-29T02:49:18;95243.72;;;3.15;78.21
34185;BME280;20454;48.100;11.776;2022-12-29T02:54:28;95239.03;;;3.11;79.16
34185;BME280;20454;48.100;11.776;2022-12-29T02:59:48;95246.97;;;3.22;78.12
34185;BME280;20454;48.100;11.776;2022-12-29T05:32:54;95175.56;;;4.88;71.38
34185;BME280;20454;48.100;11.776;2022-12-29T05:35:19;95175.03;;;4.86;70.96
34185;BME280;20454;48.100;11.776;2022-12-29T05:37:45;95175.88;;;4.86;70.94
34185;BME280;20454;48.100;11.776;2022-12-29T05:40:11;95178.31;;;4.88;71.17
34185;BME280;20454;48.100;11.776;2022-12-29T05:42:36;95176.09;;;4.90;71.26
34185;BME280;20454;48.100;11.776;2022-12-29T05:47:28;95181.84;;;4.93;70.62
34185;BME280;20454;48.100;11.776;2022-12-29T05:49:53;95177.50;;;4.87;71.38
34185;BME280;20454;48.100;11.776;2022-12-29T05:52:19;95178.84;;;4.90;71.26
34185;BME280;20454;48.100;11.776;2022-12-29T05:54:44;95176.03;;;4.95;70.47
34185;BME280;20454;48.100;11.776;2022-12-29T05:57:10;95188.09;;;4.99;70.49
34185;BME280;20454;48.100;11.776;2022-12-29T05:59:36;95173.50;;;4.98;70.20
34185;BME280;20454;48.100;11.776;2022-12-29T06:02:01;95170.09;;;5.06;68.59
34185;BME280;20454;48.100;11.776;2022-12-29T06:04:27;95168.44;;;5.05;68.89
34185;BME280;20454;48.100;11.776;2022-12-29T06:06:52;95171.44;;;5.09;69.27
34185;BME280;20454;48.100;11.776;2022-12-29T06:09:18;95168.69;;;5.09;69.25
34185;BME280;20454;48.100;11.776;2022-12-29T06:11:44;95166.44;;;5.11;69.35
34185;BME280;20454;48.100;11.776;2022-12-29T06:14:09;95167.00;;;5.08;69.59
34185;BME280;20454;48.100;11.776;2022-12-29T06:16:35;95167.34;;;5.06;69.85
34185;BME280;20454;48.100;11.776;2022-12-29T06:19:01;95160.69;;;5.07;69.59
34185;BME280;20454;48.100;11.776;2022-12-29T06:21:27;95170.09;;;5.06;70.04
34185;BME280;20454;48.100;11.776;2022-12-29T06:23:52;95170.09;;;5.06;70.83
34185;BME280;20454;48.100;11.776;2022-12-29T06:26:18;95161.59;;;5.03;70.75
34185;BME280;20454;48.100;11.776;2022-12-29T06:28:44;95176.72;;;5.05;69.59
34185;BME280;20454;48.100;11.776;2022-12-29T06:31:10;95174.47;;;5.07;69.80
34185;BME280;20454;48.100;11.776;2022-12-29T06:33:37;95174.47;;;5.07;69.44
34185;BME280;20454;48.100;11.776;2022-12-29T06:36:03;95168.75;;;5.04;69.97
34185;BME280;20454;48.100;11.776;2022-12-29T06:38:29;95176.72;;;5.05;71.17
34185;BME280;20454;48.100;11.776;2022-12-29T06:40:54;95170.16;;;5.01;70.14
34185;BME280;20454;48.100;11.776;2022-12-29T06:43:20;95166.56;;;5.01;70.40
34185;BME280;20454;48.100;11.776;2022-12-29T06:45:46;95175.66;;;5.01;69.73
34185;BME280;20454;48.100;11.776;2022-12-29T06:48:11;95182.25;;;5.05;69.64
34185;BME280;20454;48.100;11.776;2022-12-29T06:50:37;95181.16;;;5.01;69.92
34185;BME280;20454;48.100;11.776;2022-12-29T06:53:03;95170.75;;;4.98;70.55
34185;BME280;20454;48.100;11.776;2022-12-29T06:55:29;95186.47;;;4.98;71.22
34185;BME280;20454;48.100;11.776;2022-12-29T06:57:56;95187.28;;;4.98;71.48
34185;BME280;20454;48.100;11.776;2022-12-29T07:00:22;95183.69;;;4.98;71.69
34185;BME280;20454;48.100;11.776;2022-12-29T07:02:48;95185.63;;;4.97;71.52
34185;BME280;20454;48.100;11.776;2022-12-29T07:05:13;95178.19;;;4.98;71.43
34185;BME280;20454;48.100;11.776;2022-12-29T07:07:39;95188.31;;;5.02;70.94
34185;BME280;20454;48.100;11.776;2022-12-29T07:10:05;95191.06;;;5.02;70.48
34185;BME280;20454;48.100;11.776;2022-12-29T07:12:30;95197.03;;;5.09;70.08
34185;BME280;20454;48.100;11.776;2022-12-29T07:14:56;95201.81;;;5.04;70.23
34185;BME280;20454;48.100;11.776;2022-12-29T07:17:22;95209.81;;;5.05;70.93
34185;BME280;20454;48.100;11.776;2022-12-29T07:19:47;95205.94;;;5.06;71.27
34185;BME280;20454;48.100;11.776;2022-12-29T07:22:13;95204.81;;;5.07;72.37
34185;BME280;20454;48.100;11.776;2022-12-29T07:24:38;95205.31;;;5.09;71.70
34185;BME280;20454;48.100;11.776;2022-12-29T07:27:04;95211.59;;;5.15;69.74
34185;BME280;20454;48.100;11.776;2022-12-29T07:29:30;95211.59;;;5.15;70.09
34185;BME280;20454;48.100;11.776;2022-12-29T07:31:55;95219.22;;;5.23;70.68
34185;BME280;20454;48.100;11.776;2022-12-29T07:34:21;95224.41;;;5.24;70.30
34185;BME280;20454;48.100;11.776;2022-12-29T07:36:47;95221.09;;;5.27;70.47
34185;BME280;20454;48.100;11.776;2022-12-29T07:39:12;95232.06;;;5.32;69.70
34185;BME280;20454;48.100;11.776;2022-12-29T07:41:38;95224.25;;;5.39;68.44
34185;BME280;20454;48.100;11.776;2022-12-29T07:44:04;95231.63;;;5.44;68.76
34185;BME280;20454;48.100;11.776;2022-12-29T07:46:29;95229.00;;;5.52;69.22
34185;BME280;20454;48.100;11.776;2022-12-29T07:48:55;95230.00;;;5.61;68.08
34185;BME280;20454;48.100;11.776;2022-12-29T07:51:21;95220.88;;;5.61;67.92
34185;BME280;20454;48.100;11.776;2022-12-29T07:53:46;95233.19;;;5.68;67.87
34185;BME280;20454;48.100;11.776;2022-12-29T07:56:12;95229.53;;;5.73;67.79
34185;BME280;20454;48.100;11.776;2022-12-29T07:58:37;95234.75;;;5.74;67.58
34185;BME280;20454;48.100;11.776;2022-12-29T08:01:03;95239.97;;;5.76;66.46
34185;BME280;20454;48.100;11.776;2022-12-29T08:03:29;95235.00;;;5.78;66.97
34185;BME280;20454;48.100;11.776;2022-12-29T08:05:56;95233.03;;;5.78;68.12
34185;BME280;20454;48.100;11.776;2022-12-29T08:08:22;95228.41;;;5.74;68.31
34185;BME280;20454;48.100;11.776;2022-12-29T08:10:47;95227.34;;;5.70;68.13
34185;BME280;20454;48.100;11.776;2022-12-29T08:13:13;95229.03;;;5.71;67.77
34185;BME280;20454;48.100;11.776;2022-12-29T08:15:39;95218.94;;;5.61;68.26
34185;BME280;20454;48.100;11.776;2022-12-29T08:18:05;95233.09;;;5.73;67.92
34185;BME280;20454;48.100;11.776;2022-12-29T08:20:31;95242.84;;;5.89;66.61
34185;BME280;20454;48.100;11.776;2022-12-29T08:22:57;95238.94;;;5.90;65.80
34185;BME280;20454;48.100;11.776;2022-12-29T08:25:23;95243.78;;;5.98;65.55
34185;BME280;20454;48.100;11.776;2022-12-29T08:27:48;95239.31;;;6.02;66.33
34185;BME280;20454;48.100;11.776;2022-12-29T11:21:34;95137.97;;;11.82;44.50
34185;BME280;20454;48.100;11.776;2022-12-29T11:24:26;95137.03;;;11.99;43.96
34185;BME280;20454;48.100;11.776;2022-12-29T11:27:17;95135.13;;;12.11;43.34
34185;BME280;20454;48.100;11.776;2022-12-29T11:29:43;95137.97;;;12.23;42.70
34185;BME280;20454;48.100;11.776;2022-12-29T11:32:22;95127.78;;;12.27;41.74
34185;BME280;20454;48.100;11.776;2022-12-29T11:34:49;95130.84;;;12.34;41.74
34185;BME280;20454;48.100;11.776;2022-12-29T11:37:26;95132.72;;;12.42;41.37
34185;BME280;20454;48.100;11.776;2022-12-29T11:40:14;95139.06;;;12.31;41.83
34185;BME280;20454;48.100;11.776;2022-12-29T11:43:00;95129.41;;;12.28;41.13
34185;BME280;20454;48.100;11.776;2022-12-29T11:45:33;95123.59;;;12.33;41.65
34185;BME280;20454;48.100;11.776;2022-12-29T11:48:07;95126.88;;;12.35;40.64
34185;BME280;20454;48.100;11.776;2022-12-29T11:50:39;95125.41;;;12.50;40.66
34185;BME280;20454;48.100;11.776;2022-12-29T11:53:16;95120.72;;;12.74;41.45
34185;BME280;20454;48.100;11.776;2022-12-29T11:56:03;95109.66;;;13.10;40.49
34185;BME280;20454;48.100;11.776;2022-12-29T11:58:32;95104.41;;;13.33;38.48
34185;BME280;20454;48.100;11.776;2022-12-29T12:01:10;95098.13;;;13.60;39.12
34185;BME280;20454;48.100;11.776;2022-12-29T12:04:16;95097.50;;;13.90;38.81
34185;BME280;20454;48.100;11.776;2022-12-29T12:06:41;95102.13;;;14.22;36.23
34185;BME280;20454;48.100;11.776;2022-12-29T12:09:38;95106.53;;;14.51;35.81
34185;BME280;20454;48.100;11.776;2022-12-29T12:12:30;95095.94;;;14.72;34.94
34185;BME280;20454;48.100;11.776;2022-12-29T12:14:59;95102.19;;;14.81;34.36
34185;BME280;20454;48.100;11.776;2022-12-29T12:17:31;95103.47;;;14.83;33.93
34185;BME280;20454;48.100;11.776;2022-12-29T12:20:52;95101.13;;;14.58;34.43
34185;BME280;20454;48.100;11.776;2022-12-29T12:23:22;95098.34;;;14.58;35.31
34185;BME280;20454;48.100;11.776;2022-12-29T12:26:12;95092.34;;;14.44;34.68
34185;BME280;20454;48.100;11.776;2022-12-29T12:28:55;95085.31;;;14.50;34.61
34185;BME280;20454;48.100;11.776;2022-12-29T12:31:55;95085.91;;;14.71;34.74
34185;BME280;20454;48.100;11.776;2022-12-29T12:34:43;95071.88;;;14.98;34.01
34185;BME280;20454;48.100;11.776;2022-12-29T12:40:53;95072.28;;;15.31;33.71
34185;BME280;20454;48.100;11.776;2022-12-29T12:44:00;95062.91;;;15.54;34.09
34185;BME280;20454;48.100;11.776;2022-12-29T12:49:52;95063.31;;;15.72;32.74
34185;BME280;20454;48.100;11.776;2022-12-29T12:52:49;95069.34;;;15.89;32.53
34185;BME280;20454;48.100;11.776;2022-12-29T13:04:59;95059.06;;;15.78;33.08
34185;BME280;20454;48.100;11.776;2022-12-29T13:16:21;95062.50;;;14.78;34.72
34185;BME280;20454;48.100;11.776;2022-12-29T13:19:27;95068.13;;;14.36;35.44
34185;BME280;20454;48.100;11.776;2022-12-29T13:22:40;95071.69;;;14.21;35.83
34185;BME280;20454;48.100;11.776;2022-12-29T13:25:21;95059.09;;;14.03;36.92
34185;BME280;20454;48.100;11.776;2022-12-29T13:28:32;95046.50;;;13.81;37.08
34185;BME280;20454;48.100;11.776;2022-12-29T13:31:46;95054.56;;;13.59;37.49
34185;BME280;20454;48.100;11.776;2022-12-29T13:34:12;95050.78;;;13.39;38.53
34185;BME280;20454;48.100;11.776;2022-12-29T13:36:44;95047.50;;;13.37;38.94
34185;BME280;20454;48.100;11.776;2022-12-29T13:39:26;95045.53;;;13.38;38.83
34185;BME280;20454;48.100;11.776;2022-12-29T13:41:57;95048.09;;;13.31;38.81
34185;BME280;20454;48.100;11.776;2022-12-29T13:44:30;95054.97;;;13.33;39.88
34185;BME280;20454;48.100;11.776;2022-12-29T13:47:01;95057.75;;;13.33;40.01
34185;BME280;20454;48.100;11.776;2022-12-29T13:49:30;95062.53;;;13.21;39.76
34185;BME280;20454;48.100;11.776;2022-12-29T13:54:55;95061.13;;;13.03;41.35
34185;BME280;20454;48.100;11.776;2022-12-29T14:00:22;95075.13;;;12.70;41.67
34185;BME280;20454;48.100;11.776;2022-12-29T14:05:45;95074.47;;;12.41;43.38
34185;BME280;20454;48.100;11.776;2022-12-29T14:08:17;95075.25;;;12.29;43.25
34185;BME280;20454;48.100;11.776;2022-12-29T14:10:50;95076.69;;;12.15;43.95
34185;BME280;20454;48.100;11.776;2022-12-29T14:13:20;95076.66;;;12.03;44.44
34185;BME280;20454;48.100;11.776;2022-12-29T14:15:56;95081.34;;;11.90;44.59
34185;BME280;20454;48.100;11.776;2022-12-29T14:18:28;95081.78;;;11.80;43.91
34185;BME280;20454;48.100;11.776;2022-12-29T14:28:53;95089.59;;;11.37;47.54
34185;BME280;20454;48.100;11.776;2022-12-29T14:36:52;95091.59;;;10.99;49.92
34185;BME280;20454;48.100;11.776;2022-12-29T14:39:38;95085.44;;;10.85;50.57
34185;BME280;20454;48.100;11.776;2022-12-29T14:42:14;95091.38;;;10.75;50.94
34185;BME280;20454;48.100;11.776;2022-12-29T14:44:53;95081.47;;;10.57;51.62
34185;BME280;20454;48.100;11.776;2022-12-29T14:49:55;95091.59;;;10.53;51.78
34185;BME280;20454;48.100;11.776;2022-12-29T14:52:23;95088.34;;;10.43;52.92
34185;BME280;20454;48.100;11.776;2022-12-29T14:57:34;95085.97;;;10.24;54.41
34185;BME280;20454;48.100;11.776;2022-12-29T15:00:08;95086.31;;;10.14;56.56
34185;BME280;20454;48.100;11.776;2022-12-29T15:02:40;95087.00;;;10.03;55.18
34185;BME280;20454;48.100;11.776;2022-12-29T15:05:27;95096.94;;;9.95;55.77
34185;BME280;20454;48.100;11.776;2022-12-29T15:07:55;95092.84;;;9.84;56.22
34185;BME280;20454;48.100;11.776;2022-12-29T15:10:22;95091.56;;;9.73;56.96
34185;BME280;20454;48.100;11.776;2022-12-29T15:12:54;95100.53;;;9.62;57.97
34185;BME280;20454;48.100;11.776;2022-12-29T15:15:27;95100.34;;;9.50;58.22
34185;BME280;20454;48.100;11.776;2022-12-29T15:17:55;95093.47;;;9.39;57.84
34185;BME280;20454;48.100;11.776;2022-12-29T15:20:27;95106.69;;;9.34;57.74
34185;BME280;20454;48.100;11.776;2022-12-29T15:23:09;95105.38;;;9.23;58.79
34185;BME280;20454;48.100;11.776;2022-12-29T15:25:35;95108.78;;;9.20;56.73
34185;BME280;20454;48.100;11.776;2022-12-29T15:28:05;95114.84;;;9.13;56.46
34185;BME280;20454;48.100;11.776;2022-12-29T15:30:32;95100.28;;;9.08;57.43
34185;BME280;20454;48.100;11.776;2022-12-29T15:32:58;95101.38;;;8.98;58.24
34185;BME280;20454;48.100;11.776;2022-12-29T15:35:35;95098.09;;;8.88;59.92
34185;BME280;20454;48.100;11.776;2022-12-29T15:38:13;95112.25;;;8.78;60.78
34185;BME280;20454;48.100;11.776;2022-12-29T15:40:39;95114.50;;;8.67;61.18
34185;BME280;20454;48.100;11.776;2022-12-29T15:46:00;95122.53;;;8.47;61.95
34185;BME280;20454;48.100;11.776;2022-12-29T15:48:26;95127.09;;;8.43;63.02
34185;BME280;20454;48.100;11.776;2022-12-29T15:50:52;95121.31;;;8.31;62.89
34185;BME280;20454;48.100;11.776;2022-12-29T15:53:31;95120.63;;;8.25;63.52
34185;BME280;20454;48.100;11.776;2022-12-29T15:56:05;95121.03;;;8.19;63.68
34185;BME280;20454;48.100;11.776;2022-12-29T15:58:39;95118.25;;;8.10;63.09
34185;BME280;20454;48.100;11.776;2022-12-29T16:01:19;95128.50;;;8.10;62.54
34185;BME280;20454;48.100;11.776;2022-12-29T16:03:46;95127.69;;;8.09;62.75
34185;BME280;20454;48.100;11.776;2022-12-29T16:06:31;95127.81;;;8.04;63.43
34185;BME280;20454;48.100;11.776;2022-12-29T16:08:59;95127.94;;;7.99;63.42
34185;BME280;20454;48.100;11.776;2022-12-29T16:11:36;95122.50;;;7.94;63.45
34185;BME280;20454;48.100;11.776;2022-12-29T16:14:09;95130.63;;;7.91;64.30
34185;BME280;20454;48.100;11.776;2022-12-29T16:16:38;95135.97;;;7.87;64.61
34185;BME280;20454;48.100;11.776;2022-12-29T16:19:19;95130.88;;;7.81;64.80
34185;BME280;20454;48.100;11.776;2022-12-29T16:21:46;95139.31;;;7.76;65.07
34185;BME280;20454;48.100;11.776;2022-12-29T16:24:20;95131.44;;;7.69;65.90
34185;BME280;20454;48.100;11.776;2022-12-29T16:27:16;95137.94;;;7.65;65.90
34185;BME280;20454;48.100;11.776;2022-12-29T16:29:44;95136.72;;;7.57;66.59
34185;BME280;20454;48.100;11.776;2022-12-29T16:32:44;95140.63;;;7.56;67.06
34185;BME280;20454;48.100;11.776;2022-12-29T16:35:12;95149.22;;;7.55;68.24
34185;BME280;20454;48.100;11.776;2022-12-29T16:37:39;95138.59;;;7.48;68.37
34185;BME280;20454;48.100;11.776;2022-12-29T16:50:30;95145.59;;;7.32;71.26
34185;BME280;20454;48.100;11.776;2022-12-29T16:52:56;95139.56;;;7.30;71.65
34185;BME280;20454;48.100;11.776;2022-12-29T16:55:21;95140.56;;;7.34;70.64
34185;BME280;20454;48.100;11.776;2022-12-29T16:57:48;95128.97;;;7.32;70.30
34185;BME280;20454;48.100;11.776;2022-12-29T17:00:20;95136.69;;;7.35;70.99
34185;BME280;20454;48.100;11.776;2022-12-29T17:02:46;95131.94;;;7.36;71.39
34185;BME280;20454;48.100;11.776;2022-12-29T17:05:14;95137.63;;;7.31;71.79
34185;BME280;20454;48.100;11.776;2022-12-29T17:07:40;95145.59;;;7.32;72.67
34185;BME280;20454;48.100;11.776;2022-12-29T17:10:06;95148.16;;;7.29;72.72
34185;BME280;20454;48.100;11.776;2022-12-29T17:12:33;95143.25;;;7.26;73.32
34185;BME280;20454;48.100;11.776;2022-12-29T17:15:15;95153.09;;;7.18;73.18
34185;BME280;20454;48.100;11.776;2022-12-29T17:17:45;95145.41;;;7.15;73.76
34185;BME280;20454;48.100;11.776;2022-12-29T17:22:45;95147.88;;;7.03;74.79
34185;BME280;20454;48.100;11.776;2022-12-29T17:25:15;95145.53;;;6.97;75.00
34185;BME280;20454;48.100;11.776;2022-12-29T17:28:02;95143.81;;;6.87;75.77
34185;BME280;20454;48.100;11.776;2022-12-29T17:30:28;95151.28;;;6.87;76.20
34185;BME280;20454;48.100;11.776;2022-12-29T17:35:27;95160.59;;;6.77;76.86
34185;BME280;20454;48.100;11.776;2022-12-29T17:37:53;95152.59;;;6.62;77.44
34185;BME280;20454;48.100;11.776;2022-12-29T17:40:27;95156.19;;;6.63;78.01
34185;BME280;20454;48.100;11.776;2022-12-29T17:42:55;95175.34;;;6.59;77.99
34185;BME280;20454;48.100;11.776;2022-12-29T17:45:28;95172.66;;;6.54;78.72
34185;BME280;20454;48.100;11.776;2022-12-29T17:47:55;95166.63;;;6.52;79.05
34185;BME280;20454;48.100;11.776;2022-12-29T17:50:23;95169.97;;;6.49;79.89
34185;BME280;20454;48.100;11.776;2022-12-29T17:52:55;95165.59;;;6.48;79.79
34185;BME280;20454;48.100;11.776;2022-12-29T17:55:22;95153.53;;;6.44;79.82
34185;BME280;20454;48.100;11.776;2022-12-29T17:57:48;95158.72;;;6.46;78.71
34185;BME280;20454;48.100;11.776;2022-12-29T18:02:41;95162.22;;;6.51;78.33
34185;BME280;20454;48.100;11.776;2022-12-29T18:05:25;95165.50;;;6.53;75.33
34185;BME280;20454;48.100;11.776;2022-12-29T18:07:52;95169.59;;;6.56;73.81
34185;BME280;20454;48.100;11.776;2022-12-29T18:10:20;95157.53;;;6.65;70.62
34185;BME280;20454;48.100;11.776;2022-12-29T18:12:47;95163.56;;;6.67;70.28
34185;BME280;20454;48.100;11.776;2022-12-29T18:15:23;95153.53;;;6.71;70.79
34185;BME280;20454;48.100;11.776;2022-12-29T18:17:57;95158.44;;;6.74;70.77
34185;BME280;20454;48.100;11.776;2022-12-29T18:20:23;95155.06;;;6.77;69.91
34185;BME280;20454;48.100;11.776;2022-12-29T18:22:49;95157.72;;;6.82;71.69
34185;BME280;20454;48.100;11.776;2022-12-29T18:25:21;95157.84;;;6.91;69.63
34185;BME280;20454;48.100;11.776;2022-12-29T18:27:48;95160.31;;;6.92;68.67
34185;BME280;20454;48.100;11.776;2022-12-29T18:30:13;95157.00;;;6.90;69.24
34185;BME280;20454;48.100;11.776;2022-12-29T18:32:39;95153.84;;;6.83;68.78
34185;BME280;20454;48.100;11.776;2022-12-29T18:35:38;95161.63;;;6.81;69.14
34185;BME280;20454;48.100;11.776;2022-12-29T18:38:04;95155.69;;;6.74;69.54
34185;BME280;20454;48.100;11.776;2022-12-29T18:40:31;95160.16;;;6.70;70.26
34185;BME280;20454;48.100;11.776;2022-12-29T18:42:57;95162.72;;;6.67;70.58
34185;BME280;20454;48.100;11.776;2022-12-29T18:45:24;95163.06;;;6.65;70.36
34185;BME280;20454;48.100;11.776;2022-12-29T18:47:50;95165.28;;;6.63;70.18
34185;BME280;20454;48.100;11.776;2022-12-29T18:50:16;95167.53;;;6.61;70.20
34185;BME280;20454;48.100;11.776;2022-12-29T20:36:23;95150.75;;;6.58;73.34
34185;BME280;20454;48.100;11.776;2022-12-29T20:38:50;95155.16;;;6.59;73.51
34185;BME280;20454;48.100;11.776;2022-12-29T20:41:16;95154.84;;;6.60;73.98
34185;BME280;20454;48.100;11.776;2022-12-29T20:43:42;95173.91;;;6.62;74.18
34185;BME280;20454;48.100;11.776;2022-12-29T20:46:08;95171.44;;;6.60;74.18
34185;BME280;20454;48.100;11.776;2022-12-29T20:48:35;95167.03;;;6.59;74.15
34185;BME280;20454;48.100;11.776;2022-12-29T20:51:00;95157.13;;;6.58;74.04
34185;BME280;20454;48.100;11.776;2022-12-29T20:53:28;95165.69;;;6.57;74.07
34185;BME280;20454;48.100;11.776;2022-12-29T20:55:58;95163.97;;;6.61;74.57
34185;BME280;20454;48.100;11.776;2022-12-29T20:58:24;95165.41;;;6.58;74.83
34185;BME280;20454;48.100;11.776;2022-12-29T21:00:50;95162.44;;;6.55;75.09
34185;BME280;20454;48.100;11.776;2022-12-29T21:03:16;95160.25;;;6.52;74.50
34185;BME280;20454;48.100;11.776;2022-12-29T21:05:41;95160.81;;;6.54;74.72
34185;BME280;20454;48.100;11.776;2022-12-29T21:08:07;95153.09;;;6.51;74.84
34185;BME280;20454;48.100;11.776;2022-12-29T21:10:32;95159.47;;;6.51;75.05
34185;BME280;20454;48.100;11.776;2022-12-29T21:12:58;95155.56;;;6.52;75.62
34185;BME280;20454;48.100;11.776;2022-12-29T21:15:25;95153.41;;;6.49;76.76
34185;BME280;20454;48.100;11.776;2022-12-29T21:17:52;95149.84;;;6.49;76.86
34185;BME280;20454;48.100;11.776;2022-12-29T21:20:18;95144.09;;;6.45;76.27
34185;BME280;20454;48.100;11.776;2022-12-29T21:22:55;95149.63;;;6.45;76.75
34185;BME280;20454;48.100;11.776;2022-12-29T21:25:21;95155.44;;;6.44;76.55
34185;BME280;20454;48.100;11.776;2022-12-29T21:27:47;95153.31;;;6.41;76.50
34185;BME280;20454;48.100;11.776;2022-12-29T21:30:13;95157.19;;;6.40;76.46
34185;BME280;20454;48.100;11.776;2022-12-29T21:32:39;95160.56;;;6.37;76.63
34185;BME280;20454;48.100;11.776;2022-12-29T21:35:06;95157.78;;;6.37;75.60
34185;BME280;20454;48.100;11.776;2022-12-29T21:37:32;95157.78;;;6.37;75.89
34185;BME280;20454;48.100;11.776;2022-12-29T21:39:58;95142.84;;;6.38;76.88
34185;BME280;20454;48.100;11.776;2022-12-29T21:42:24;95140.09;;;6.38;77.56
34185;BME280;20454;48.100;11.776;2022-12-29T21:44:52;95140.41;;;6.36;78.04
34185;BME280;20454;48.100;11.776;2022-12-29T21:47:36;95151.97;;;6.38;78.09
34185;BME280;20454;48.100;11.776;2022-12-29T21:50:20;95159.13;;;6.39;77.71
34185;BME280;20454;48.100;11.776;2022-12-29T21:52:46;95155.88;;;6.37;77.51
34185;BME280;20454;48.100;11.776;2022-12-29T21:55:11;95149.50;;;6.37;76.92
34185;BME280;20454;48.100;11.776;2022-12-29T21:57:37;95148.38;;;6.38;77.33
34185;BME280;20454;48.100;11.776;2022-12-29T22:00:21;95163.53;;;6.40;77.88
34185;BME280;20454;48.100;11.776;2022-12-29T22:03:05;95160.75;;;6.40;78.42
34185;BME280;20454;48.100;11.776;2022-12-29T22:05:50;95162.19;;;6.38;79.08
34185;BME280;20454;48.100;11.776;2022-12-29T22:08:35;95155.03;;;6.37;79.56
34185;BME280;20454;48.100;11.776;2022-12-29T22:11:19;95172.44;;;6.37;79.21
34185;BME280;20454;48.100;11.776;2022-12-29T22:14:03;95185.63;;;6.40;77.13
34185;BME280;20454;48.100;11.776;2022-12-29T22:16:30;95174.88;;;6.39;75.95
34185;BME280;20454;48.100;11.776;2022-12-29T22:18:56;95174.72;;;6.49;75.13
34185;BME280;20454;48.100;11.776;2022-12-29T22:21:22;95172.16;;;6.52;74.77